sensor_id;sensor_type;location;lat;lon;timestamp;pressure;altitude;pressure_sealevel;temperature;humidity
61568;BME280;47462;59.172;17.196;2023-11-19T00:01:07;101575.94;;;-3.90;81.34
61568;BME280;47462;59.172;17.196;2023-11-19T00:03:33;101567.50;;;-3.89;81.80
61568;BME280;47462;59.172;17.196;2023-11-19T00:05:59;101567.50;;;-3.89;81.59
61568;BME280;47462;59.172;17.196;2023-11-19T00:08:24;101563.13;;;-3.91;81.67
61568;BME280;47462;59.172;17.196;2023-11-19T00:10:50;101547.63;;;-3.96;81.48
61568;BME280;47462;59.172;17.196;2023-11-19T00:13:16;101550.97;;;-3.97;81.85
61568;BME280;47462;59.172;17.196;2023-11-19T00:15:41;101560.00;;;-3.86;81.55
61568;BME280;47462;59.172;17.196;2023-11-19T00:18:07;101567.06;;;-3.79;81.36
61568;BME280;47462;59.172;17.196;2023-11-19T00:20:32;101564.25;;;-3.85;80.72
61568;BME280;47462;59.172;17.196;2023-11-19T00:22:58;101559.66;;;-3.93;80.59
61568;BME280;47462;59.172;17.196;2023-11-19T00:25:23;101560.03;;;-4.04;81.17
61568;BME280;47462;59.172;17.196;2023-11-19T00:27:50;101561.69;;;-4.04;81.61
61568;BME280;47462;59.172;17.196;2023-11-19T00:30:15;101551.50;;;-4.04;81.57
61568;BME280;47462;59.172;17.196;2023-11-19T00:32:42;101552.66;;;-3.98;81.09
61568;BME280;47462;59.172;17.196;2023-11-19T00:35:08;101544.81;;;-4.02;81.28
61568;BME280;47462;59.172;17.196;2023-11-19T00:37:35;101553.06;;;-3.88;81.20
61568;BME280;47462;59.172;17.196;2023-11-19T00:40:00;101543.59;;;-3.91;81.39
61568;BME280;47462;59.172;17.196;2023-11-19T00:42:26;101544.69;;;-3.86;81.27
61568;BME280;47462;59.172;17.196;2023-11-19T00:44:52;101540.38;;;-3.87;81.07
61568;BME280;47462;59.172;17.196;2023-11-19T00:47:17;101540.50;;;-3.84;81.37
61568;BME280;47462;59.172;17.196;2023-11-19T00:49:46;101542.13;;;-3.86;81.20
61568;BME280;47462;59.172;17.196;2023-11-19T00:52:13;101529.19;;;-3.90;80.81
61568;BME280;47462;59.172;17.196;2023-11-19T00:54:38;101546.34;;;-3.86;81.29
61568;BME280;47462;59.172;17.196;2023-11-19T00:57:04;101542.91;;;-4.06;80.62
61568;BME280;47462;59.172;17.196;2023-11-19T00:59:31;101533.94;;;-4.18;81.19
61568;BME280;47462;59.172;17.196;2023-11-19T01:01:56;101538.34;;;-4.33;81.21
61568;BME280;47462;59.172;17.196;2023-11-19T01:04:21;101528.28;;;-4.30;82.08
61568;BME280;47462;59.172;17.196;2023-11-19T01:06:47;101532.63;;;-4.27;82.07
61568;BME280;47462;59.172;17.196;2023-11-19T01:09:12;101537.72;;;-4.27;82.29
61568;BME280;47462;59.172;17.196;2023-11-19T01:11:37;101533.31;;;-4.32;82.37
61568;BME280;47462;59.172;17.196;2023-11-19T01:14:03;101523.25;;;-4.28;82.85
61568;BME280;47462;59.172;17.196;2023-11-19T01:16:28;101513.31;;;-4.42;82.71
61568;BME280;47462;59.172;17.196;2023-11-19T01:18:54;101514.50;;;-4.34;83.22
61568;BME280;47462;59.172;17.196;2023-11-19T01:21:19;101516.69;;;-4.23;83.17
61568;BME280;47462;59.172;17.196;2023-11-19T01:23:45;101516.22;;;-4.15;83.14
61568;BME280;47462;59.172;17.196;2023-11-19T01:26:12;101510.44;;;-4.10;83.01
61568;BME280;47462;59.172;17.196;2023-11-19T01:28:39;101499.25;;;-4.14;82.77
61568;BME280;47462;59.172;17.196;2023-11-19T01:31:05;101506.31;;;-4.08;82.81
61568;BME280;47462;59.172;17.196;2023-11-19T01:33:35;101504.75;;;-4.05;82.16
61568;BME280;47462;59.172;17.196;2023-11-19T01:36:00;101499.66;;;-4.05;82.49
61568;BME280;47462;59.172;17.196;2023-11-19T01:38:26;101500.50;;;-4.04;82.11
61568;BME280;47462;59.172;17.196;2023-11-19T01:40:55;101490.03;;;-4.10;82.34
61568;BME280;47462;59.172;17.196;2023-11-19T01:43:37;101484.00;;;-4.13;82.44
61568;BME280;47462;59.172;17.196;2023-11-19T01:46:03;101485.91;;;-4.08;82.72
61568;BME280;47462;59.172;17.196;2023-11-19T01:48:30;101468.78;;;-4.11;82.74
61568;BME280;47462;59.172;17.196;2023-11-19T01:50:56;101475.00;;;-4.04;82.82
61568;BME280;47462;59.172;17.196;2023-11-19T01:53:23;101468.13;;;-4.07;82.93
61568;BME280;47462;59.172;17.196;2023-11-19T01:55:49;101469.78;;;-4.07;82.93
61568;BME280;47462;59.172;17.196;2023-11-19T01:58:15;101468.13;;;-4.07;83.20
61568;BME280;47462;59.172;17.196;2023-11-19T02:00:42;101459.59;;;-4.07;83.15
61568;BME280;47462;59.172;17.196;2023-11-19T02:03:09;101453.69;;;-4.06;83.24
61568;BME280;47462;59.172;17.196;2023-11-19T02:05:35;101452.91;;;-4.05;83.20
61568;BME280;47462;59.172;17.196;2023-11-19T02:08:01;101444.84;;;-4.15;83.24
61568;BME280;47462;59.172;17.196;2023-11-19T02:10:26;101437.22;;;-4.15;83.31
61568;BME280;47462;59.172;17.196;2023-11-19T02:12:52;101431.22;;;-4.15;83.13
61568;BME280;47462;59.172;17.196;2023-11-19T02:15:18;101431.97;;;-4.18;83.37
61568;BME280;47462;59.172;17.196;2023-11-19T02:17:50;101429.56;;;-4.15;83.47
61568;BME280;47462;59.172;17.196;2023-11-19T02:20:16;101432.97;;;-4.14;83.12
61568;BME280;47462;59.172;17.196;2023-11-19T02:22:41;101428.66;;;-4.15;83.10
61568;BME280;47462;59.172;17.196;2023-11-19T02:25:29;101422.63;;;-4.17;83.38
61568;BME280;47462;59.172;17.196;2023-11-19T02:27:59;101417.81;;;-4.11;83.25
61568;BME280;47462;59.172;17.196;2023-11-19T02:30:25;101425.50;;;-4.09;83.45
61568;BME280;47462;59.172;17.196;2023-11-19T02:33:03;101413.69;;;-4.07;83.39
61568;BME280;47462;59.172;17.196;2023-11-19T02:35:31;101408.78;;;-4.03;83.53
61568;BME280;47462;59.172;17.196;2023-11-19T02:37:58;101409.88;;;-3.98;83.33
61568;BME280;47462;59.172;17.196;2023-11-19T02:40:29;101401.91;;;-4.05;83.54
61568;BME280;47462;59.172;17.196;2023-11-19T02:42:55;101404.59;;;-4.02;83.26
61568;BME280;47462;59.172;17.196;2023-11-19T02:45:22;101397.72;;;-4.03;83.38
61568;BME280;47462;59.172;17.196;2023-11-19T02:47:47;101396.94;;;-4.02;83.36
61568;BME280;47462;59.172;17.196;2023-11-19T02:50:13;101405.44;;;-4.02;83.25
61568;BME280;47462;59.172;17.196;2023-11-19T02:52:42;101398.53;;;-4.04;83.73
61568;BME280;47462;59.172;17.196;2023-11-19T02:55:11;101390.22;;;-4.00;83.81
61568;BME280;47462;59.172;17.196;2023-11-19T02:57:40;101383.34;;;-4.01;83.37
61568;BME280;47462;59.172;17.196;2023-11-19T03:00:22;101368.81;;;-4.04;83.60
61568;BME280;47462;59.172;17.196;2023-11-19T03:03:10;101368.81;;;-4.04;83.56
61568;BME280;47462;59.172;17.196;2023-11-19T03:05:46;101367.25;;;-4.00;84.10
61568;BME280;47462;59.172;17.196;2023-11-19T03:08:12;101352.75;;;-4.01;83.44
61568;BME280;47462;59.172;17.196;2023-11-19T03:10:37;101360.41;;;-4.01;83.54
61568;BME280;47462;59.172;17.196;2023-11-19T03:13:03;101357.34;;;-4.14;82.46
61568;BME280;47462;59.172;17.196;2023-11-19T03:15:29;101350.75;;;-4.30;83.62
61568;BME280;47462;59.172;17.196;2023-11-19T03:17:55;101354.56;;;-4.20;83.91
61568;BME280;47462;59.172;17.196;2023-11-19T03:20:20;101341.81;;;-4.20;84.01
61568;BME280;47462;59.172;17.196;2023-11-19T03:22:46;101343.94;;;-4.09;83.97
61568;BME280;47462;59.172;17.196;2023-11-19T03:25:11;101339.84;;;-4.06;84.01
61568;BME280;47462;59.172;17.196;2023-11-19T03:27:38;101329.88;;;-4.00;83.46
61568;BME280;47462;59.172;17.196;2023-11-19T03:30:10;101323.00;;;-4.02;83.97
61568;BME280;47462;59.172;17.196;2023-11-19T03:32:36;101327.41;;;-3.98;83.71
61568;BME280;47462;59.172;17.196;2023-11-19T03:35:02;101317.06;;;-4.01;83.88
61568;BME280;47462;59.172;17.196;2023-11-19T03:37:29;101317.19;;;-3.98;83.65
61568;BME280;47462;59.172;17.196;2023-11-19T03:39:54;101314.88;;;-3.93;83.64
61568;BME280;47462;59.172;17.196;2023-11-19T03:42:23;101309.88;;;-3.90;83.38
61568;BME280;47462;59.172;17.196;2023-11-19T03:44:48;101305.53;;;-3.93;83.16
61568;BME280;47462;59.172;17.196;2023-11-19T03:47:15;101309.75;;;-3.93;83.54
61568;BME280;47462;59.172;17.196;2023-11-19T03:49:40;101302.97;;;-3.93;83.43
61568;BME280;47462;59.172;17.196;2023-11-19T03:52:05;101300.66;;;-3.87;83.43
61568;BME280;47462;59.172;17.196;2023-11-19T03:54:31;101300.72;;;-3.85;83.08
61568;BME280;47462;59.172;17.196;2023-11-19T03:56:58;101294.88;;;-3.83;83.09
61568;BME280;47462;59.172;17.196;2023-11-19T03:59:25;101291.50;;;-3.82;82.86
61568;BME280;47462;59.172;17.196;2023-11-19T04:01:50;101282.31;;;-3.78;83.19
61568;BME280;47462;59.172;17.196;2023-11-19T04:04:16;101273.03;;;-3.76;83.23
61568;BME280;47462;59.172;17.196;2023-11-19T04:06:41;101271.41;;;-3.74;83.27
61568;BME280;47462;59.172;17.196;2023-11-19T04:09:07;101275.03;;;-3.69;82.85
61568;BME280;47462;59.172;17.196;2023-11-19T04:11:32;101259.31;;;-3.80;82.80
61568;BME280;47462;59.172;17.196;2023-11-19T04:13:58;101273.09;;;-3.74;83.35
61568;BME280;47462;59.172;17.196;2023-11-19T04:16:27;101267.19;;;-3.73;83.36
61568;BME280;47462;59.172;17.196;2023-11-19T04:18:55;101246.31;;;-3.86;82.91
61568;BME280;47462;59.172;17.196;2023-11-19T04:21:21;101260.34;;;-3.74;83.11
61568;BME280;47462;59.172;17.196;2023-11-19T04:23:48;101261.44;;;-3.68;83.39
61568;BME280;47462;59.172;17.196;2023-11-19T04:26:13;101255.47;;;-3.68;83.37
61568;BME280;47462;59.172;17.196;2023-11-19T04:28:39;101259.00;;;-3.65;83.22
61568;BME280;47462;59.172;17.196;2023-11-19T04:31:04;101264.16;;;-3.63;83.09
61568;BME280;47462;59.172;17.196;2023-11-19T04:33:31;101233.31;;;-3.69;83.29
61568;BME280;47462;59.172;17.196;2023-11-19T04:35:56;101250.72;;;-3.59;82.92
61568;BME280;47462;59.172;17.196;2023-11-19T04:38:21;101242.94;;;-3.62;83.04
61568;BME280;47462;59.172;17.196;2023-11-19T04:40:47;101250.84;;;-3.56;82.84
61568;BME280;47462;59.172;17.196;2023-11-19T04:43:12;101236.28;;;-3.59;83.51
61568;BME280;47462;59.172;17.196;2023-11-19T04:45:38;101250.03;;;-3.55;82.93
61568;BME280;47462;59.172;17.196;2023-11-19T04:48:05;101242.38;;;-3.55;82.96
61568;BME280;47462;59.172;17.196;2023-11-19T04:50:30;101235.41;;;-3.59;83.30
61568;BME280;47462;59.172;17.196;2023-11-19T04:52:56;101238.03;;;-3.58;83.35
61568;BME280;47462;59.172;17.196;2023-11-19T04:55:21;101240.84;;;-3.50;83.43
61568;BME280;47462;59.172;17.196;2023-11-19T04:57:47;101232.50;;;-3.46;83.06
61568;BME280;47462;59.172;17.196;2023-11-19T05:00:13;101227.41;;;-3.46;82.98
61568;BME280;47462;59.172;17.196;2023-11-19T05:02:38;101217.78;;;-3.53;83.00
61568;BME280;47462;59.172;17.196;2023-11-19T05:05:04;101218.81;;;-3.48;83.30
61568;BME280;47462;59.172;17.196;2023-11-19T05:07:30;101205.94;;;-3.51;83.24
61568;BME280;47462;59.172;17.196;2023-11-19T05:09:55;101194.69;;;-3.56;83.44
61568;BME280;47462;59.172;17.196;2023-11-19T05:12:21;101204.59;;;-3.41;83.02
61568;BME280;47462;59.172;17.196;2023-11-19T05:14:46;101199.34;;;-3.46;83.12
61568;BME280;47462;59.172;17.196;2023-11-19T05:17:15;101194.97;;;-3.48;83.41
61568;BME280;47462;59.172;17.196;2023-11-19T05:19:41;101205.25;;;-3.47;83.43
61568;BME280;47462;59.172;17.196;2023-11-19T05:22:06;101197.75;;;-3.42;83.14
61568;BME280;47462;59.172;17.196;2023-11-19T05:24:32;101195.19;;;-3.42;83.15
61568;BME280;47462;59.172;17.196;2023-11-19T05:26:58;101194.44;;;-3.39;83.27
61568;BME280;47462;59.172;17.196;2023-11-19T05:29:23;101199.63;;;-3.38;83.00
61568;BME280;47462;59.172;17.196;2023-11-19T05:31:49;101198.84;;;-3.35;82.91
61568;BME280;47462;59.172;17.196;2023-11-19T05:34:14;101187.81;;;-3.34;82.93
61568;BME280;47462;59.172;17.196;2023-11-19T05:36:40;101187.81;;;-3.34;83.02
61568;BME280;47462;59.172;17.196;2023-11-19T05:39:05;101179.53;;;-3.29;82.89
61568;BME280;47462;59.172;17.196;2023-11-19T05:41:31;101180.38;;;-3.28;82.97
61568;BME280;47462;59.172;17.196;2023-11-19T05:43:56;101181.91;;;-3.33;83.29
61568;BME280;47462;59.172;17.196;2023-11-19T05:46:22;101182.50;;;-3.41;83.20
61568;BME280;47462;59.172;17.196;2023-11-19T05:48:47;101172.28;;;-3.41;83.29
61568;BME280;47462;59.172;17.196;2023-11-19T05:51:13;101168.09;;;-3.38;83.19
61568;BME280;47462;59.172;17.196;2023-11-19T05:53:40;101161.97;;;-3.44;83.47
61568;BME280;47462;59.172;17.196;2023-11-19T05:56:06;101162.03;;;-3.42;83.32
61568;BME280;47462;59.172;17.196;2023-11-19T05:58:34;101160.38;;;-3.40;83.26
61568;BME280;47462;59.172;17.196;2023-11-19T06:01:01;101159.44;;;-3.44;83.34
61568;BME280;47462;59.172;17.196;2023-11-19T06:03:27;101151.78;;;-3.44;83.49
61568;BME280;47462;59.172;17.196;2023-11-19T06:05:53;101160.28;;;-3.43;83.22
61568;BME280;47462;59.172;17.196;2023-11-19T06:08:19;101138.69;;;-3.53;83.44
61568;BME280;47462;59.172;17.196;2023-11-19T06:10:46;101158.63;;;-3.43;83.75
61568;BME280;47462;59.172;17.196;2023-11-19T06:13:12;101165.38;;;-3.43;83.51
61568;BME280;47462;59.172;17.196;2023-11-19T06:15:43;101150.97;;;-3.43;83.70
61568;BME280;47462;59.172;17.196;2023-11-19T06:18:09;101150.97;;;-3.43;83.88
61568;BME280;47462;59.172;17.196;2023-11-19T06:20:35;101150.06;;;-3.43;83.53
61568;BME280;47462;59.172;17.196;2023-11-19T06:23:00;101149.97;;;-3.46;83.52
61568;BME280;47462;59.172;17.196;2023-11-19T06:25:26;101151.72;;;-3.45;83.73
61568;BME280;47462;59.172;17.196;2023-11-19T06:27:52;101150.03;;;-3.45;84.05
61568;BME280;47462;59.172;17.196;2023-11-19T06:30:18;101147.34;;;-3.48;83.85
61568;BME280;47462;59.172;17.196;2023-11-19T06:32:44;101145.75;;;-3.46;83.83
61568;BME280;47462;59.172;17.196;2023-11-19T06:35:09;101146.63;;;-3.45;84.10
61568;BME280;47462;59.172;17.196;2023-11-19T06:37:41;101134.00;;;-3.41;83.58
61568;BME280;47462;59.172;17.196;2023-11-19T06:40:07;101145.88;;;-3.43;83.42
61568;BME280;47462;59.172;17.196;2023-11-19T06:42:34;101133.78;;;-3.47;83.28
61568;BME280;47462;59.172;17.196;2023-11-19T06:45:00;101130.13;;;-3.55;83.46
61568;BME280;47462;59.172;17.196;2023-11-19T06:47:27;101131.94;;;-3.51;83.46
61568;BME280;47462;59.172;17.196;2023-11-19T06:49:53;101121.53;;;-3.57;83.61
61568;BME280;47462;59.172;17.196;2023-11-19T06:52:19;101118.16;;;-3.56;83.32
61568;BME280;47462;59.172;17.196;2023-11-19T06:54:44;101123.06;;;-3.62;83.16
61568;BME280;47462;59.172;17.196;2023-11-19T06:57:13;101115.00;;;-3.73;83.43
61568;BME280;47462;59.172;17.196;2023-11-19T06:59:39;101120.22;;;-3.70;83.48
61568;BME280;47462;59.172;17.196;2023-11-19T07:02:04;101114.91;;;-3.76;83.81
61568;BME280;47462;59.172;17.196;2023-11-19T07:04:30;101115.59;;;-3.80;83.77
61568;BME280;47462;59.172;17.196;2023-11-19T07:06:56;101124.03;;;-3.83;83.33
61568;BME280;47462;59.172;17.196;2023-11-19T07:09:22;101115.19;;;-3.91;83.93
61568;BME280;47462;59.172;17.196;2023-11-19T07:11:48;101116.09;;;-3.90;84.13
61568;BME280;47462;59.172;17.196;2023-11-19T07:14:15;101121.53;;;-3.81;83.87
61568;BME280;47462;59.172;17.196;2023-11-19T07:16:41;101123.25;;;-3.80;83.58
61568;BME280;47462;59.172;17.196;2023-11-19T07:19:08;101130.84;;;-3.82;83.37
61568;BME280;47462;59.172;17.196;2023-11-19T07:21:33;101124.66;;;-3.88;83.47
61568;BME280;47462;59.172;17.196;2023-11-19T07:23:59;101130.50;;;-3.91;83.71
61568;BME280;47462;59.172;17.196;2023-11-19T07:26:25;101133.16;;;-3.88;83.91
61568;BME280;47462;59.172;17.196;2023-11-19T07:28:50;101132.25;;;-3.90;83.35
61568;BME280;47462;59.172;17.196;2023-11-19T07:31:17;101132.13;;;-3.93;83.42
61568;BME280;47462;59.172;17.196;2023-11-19T07:33:45;101129.53;;;-3.95;83.43
61568;BME280;47462;59.172;17.196;2023-11-19T07:36:12;101129.47;;;-3.96;83.54
61568;BME280;47462;59.172;17.196;2023-11-19T07:38:37;101124.53;;;-3.91;83.92
61568;BME280;47462;59.172;17.196;2023-11-19T07:41:04;101105.84;;;-3.92;83.76
61568;BME280;47462;59.172;17.196;2023-11-19T07:43:30;101111.09;;;-3.87;83.66
61568;BME280;47462;59.172;17.196;2023-11-19T07:45:56;101119.84;;;-3.81;83.60
61568;BME280;47462;59.172;17.196;2023-11-19T07:48:24;101122.59;;;-3.74;83.31
61568;BME280;47462;59.172;17.196;2023-11-19T07:50:49;101117.28;;;-3.81;83.25
61568;BME280;47462;59.172;17.196;2023-11-19T07:53:16;101115.75;;;-3.76;83.51
61568;BME280;47462;59.172;17.196;2023-11-19T07:55:41;101122.03;;;-3.67;83.24
61568;BME280;47462;59.172;17.196;2023-11-19T07:58:07;101120.50;;;-3.62;83.26
61568;BME280;47462;59.172;17.196;2023-11-19T08:00:32;101116.47;;;-3.55;83.34
61568;BME280;47462;59.172;17.196;2023-11-19T08:02:58;101111.47;;;-3.52;83.05
61568;BME280;47462;59.172;17.196;2023-11-19T08:05:23;101115.94;;;-3.47;83.11
61568;BME280;47462;59.172;17.196;2023-11-19T08:07:50;101117.06;;;-3.38;83.16
61568;BME280;47462;59.172;17.196;2023-11-19T08:10:18;101111.09;;;-3.39;82.66
61568;BME280;47462;59.172;17.196;2023-11-19T08:12:43;101105.25;;;-3.36;82.93
61568;BME280;47462;59.172;17.196;2023-11-19T08:15:09;101103.91;;;-3.25;83.06
61568;BME280;47462;59.172;17.196;2023-11-19T08:17:34;101094.84;;;-3.17;82.78
61568;BME280;47462;59.172;17.196;2023-11-19T08:20:00;101098.56;;;-3.07;82.77
61568;BME280;47462;59.172;17.196;2023-11-19T08:22:26;101092.75;;;-3.03;82.46
61568;BME280;47462;59.172;17.196;2023-11-19T08:24:51;101079.94;;;-3.05;82.42
61568;BME280;47462;59.172;17.196;2023-11-19T08:27:17;101082.88;;;-2.92;82.46
61568;BME280;47462;59.172;17.196;2023-11-19T08:29:42;101083.84;;;-2.89;82.20
61568;BME280;47462;59.172;17.196;2023-11-19T08:32:08;101075.31;;;-2.89;82.25
61568;BME280;47462;59.172;17.196;2023-11-19T08:34:33;101068.56;;;-2.87;82.72
61568;BME280;47462;59.172;17.196;2023-11-19T08:36:59;101055.66;;;-2.92;82.44
61568;BME280;47462;59.172;17.196;2023-11-19T08:39:24;101054.16;;;-2.85;82.69
61568;BME280;47462;59.172;17.196;2023-11-19T08:41:51;101059.53;;;-2.76;82.19
61568;BME280;47462;59.172;17.196;2023-11-19T08:44:17;101065.78;;;-2.67;82.01
61568;BME280;47462;59.172;17.196;2023-11-19T08:46:50;101064.97;;;-2.65;81.94
61568;BME280;47462;59.172;17.196;2023-11-19T08:49:16;101052.81;;;-2.74;82.10
61568;BME280;47462;59.172;17.196;2023-11-19T08:51:42;101064.03;;;-2.69;82.10
61568;BME280;47462;59.172;17.196;2023-11-19T08:54:07;101057.31;;;-2.65;81.94
61568;BME280;47462;59.172;17.196;2023-11-19T08:56:33;101055.56;;;-2.67;82.08
61568;BME280;47462;59.172;17.196;2023-11-19T08:59:00;101054.00;;;-2.62;81.94
61568;BME280;47462;59.172;17.196;2023-11-19T09:01:26;101051.53;;;-2.59;82.10
61568;BME280;47462;59.172;17.196;2023-11-19T09:03:51;101049.09;;;-2.56;81.82
61568;BME280;47462;59.172;17.196;2023-11-19T09:06:17;101055.16;;;-2.53;81.74
61568;BME280;47462;59.172;17.196;2023-11-19T09:08:43;101041.56;;;-2.52;81.68
61568;BME280;47462;59.172;17.196;2023-11-19T09:11:08;101023.53;;;-2.56;81.67
61568;BME280;47462;59.172;17.196;2023-11-19T09:13:35;101035.69;;;-2.49;81.82
61568;BME280;47462;59.172;17.196;2023-11-19T09:16:00;101048.69;;;-2.41;81.79
61568;BME280;47462;59.172;17.196;2023-11-19T09:18:29;101045.28;;;-2.42;81.46
61568;BME280;47462;59.172;17.196;2023-11-19T09:20:54;101031.56;;;-2.44;81.46
61568;BME280;47462;59.172;17.196;2023-11-19T09:23:20;101034.47;;;-2.31;81.45
61568;BME280;47462;59.172;17.196;2023-11-19T09:25:45;101027.72;;;-2.29;81.59
61568;BME280;47462;59.172;17.196;2023-11-19T09:28:11;101029.41;;;-2.30;81.90
61568;BME280;47462;59.172;17.196;2023-11-19T09:30:39;101025.53;;;-2.17;81.60
61568;BME280;47462;59.172;17.196;2023-11-19T09:33:05;101019.69;;;-2.11;81.68
61568;BME280;47462;59.172;17.196;2023-11-19T09:35:30;101020.66;;;-2.08;81.50
61568;BME280;47462;59.172;17.196;2023-11-19T09:37:56;101006.28;;;-2.04;81.63
61568;BME280;47462;59.172;17.196;2023-11-19T09:40:21;100997.94;;;-1.97;81.32
61568;BME280;47462;59.172;17.196;2023-11-19T09:42:47;100991.25;;;-1.92;81.26
61568;BME280;47462;59.172;17.196;2023-11-19T09:45:15;100989.72;;;-1.87;81.45
61568;BME280;47462;59.172;17.196;2023-11-19T09:47:46;100986.25;;;-1.87;81.33
61568;BME280;47462;59.172;17.196;2023-11-19T09:50:16;100977.72;;;-1.88;81.72
61568;BME280;47462;59.172;17.196;2023-11-19T09:52:43;100969.28;;;-1.85;81.70
61568;BME280;47462;59.172;17.196;2023-11-19T09:55:09;100980.66;;;-1.74;81.47
61568;BME280;47462;59.172;17.196;2023-11-19T09:57:35;100975.63;;;-1.71;81.44
61568;BME280;47462;59.172;17.196;2023-11-19T10:00:03;100972.25;;;-1.70;81.63
61568;BME280;47462;59.172;17.196;2023-11-19T10:02:31;100945.78;;;-1.69;81.20
61568;BME280;47462;59.172;17.196;2023-11-19T10:04:59;100965.69;;;-1.58;81.22
61568;BME280;47462;59.172;17.196;2023-11-19T10:07:28;100957.19;;;-1.57;81.56
61568;BME280;47462;59.172;17.196;2023-11-19T10:09:54;100963.31;;;-1.51;81.38
61568;BME280;47462;59.172;17.196;2023-11-19T10:12:19;100963.50;;;-1.43;81.58
61568;BME280;47462;59.172;17.196;2023-11-19T10:14:45;100961.69;;;-1.47;81.35
61568;BME280;47462;59.172;17.196;2023-11-19T10:17:13;100962.69;;;-1.42;81.29
61568;BME280;47462;59.172;17.196;2023-11-19T10:19:40;100958.59;;;-1.34;81.53
61568;BME280;47462;59.172;17.196;2023-11-19T10:22:07;100956.13;;;-1.31;81.03
61568;BME280;47462;59.172;17.196;2023-11-19T10:24:33;100951.94;;;-1.27;81.16
61568;BME280;47462;59.172;17.196;2023-11-19T10:27:02;100955.38;;;-1.27;81.13
61568;BME280;47462;59.172;17.196;2023-11-19T10:29:29;100944.44;;;-1.19;81.02
61568;BME280;47462;59.172;17.196;2023-11-19T10:31:56;100943.63;;;-1.17;80.98
61568;BME280;47462;59.172;17.196;2023-11-19T10:34:26;100944.59;;;-1.13;80.84
61568;BME280;47462;59.172;17.196;2023-11-19T10:36:52;100937.00;;;-1.09;80.51
61568;BME280;47462;59.172;17.196;2023-11-19T10:39:17;100929.28;;;-1.10;80.57
61568;BME280;47462;59.172;17.196;2023-11-19T10:41:43;100922.56;;;-1.05;80.20
61568;BME280;47462;59.172;17.196;2023-11-19T10:44:09;100934.00;;;-0.89;79.86
61568;BME280;47462;59.172;17.196;2023-11-19T10:46:41;100927.34;;;-0.82;79.77
61568;BME280;47462;59.172;17.196;2023-11-19T10:49:09;100927.47;;;-0.76;80.18
61568;BME280;47462;59.172;17.196;2023-11-19T10:51:35;100930.88;;;-0.76;79.91
61568;BME280;47462;59.172;17.196;2023-11-19T10:54:04;100926.66;;;-0.72;79.78
61568;BME280;47462;59.172;17.196;2023-11-19T10:56:33;100919.00;;;-0.70;79.84
61568;BME280;47462;59.172;17.196;2023-11-19T10:59:00;100913.22;;;-0.62;79.59
61568;BME280;47462;59.172;17.196;2023-11-19T11:01:41;100910.75;;;-0.57;79.57
61568;BME280;47462;59.172;17.196;2023-11-19T11:04:19;100902.19;;;-0.59;79.17
61568;BME280;47462;59.172;17.196;2023-11-19T11:06:48;100894.50;;;-0.59;79.29
61568;BME280;47462;59.172;17.196;2023-11-19T11:09:14;100897.22;;;-0.50;79.35
61568;BME280;47462;59.172;17.196;2023-11-19T11:11:40;100896.53;;;-0.43;79.02
61568;BME280;47462;59.172;17.196;2023-11-19T11:14:12;100897.41;;;-0.41;79.21
61568;BME280;47462;59.172;17.196;2023-11-19T11:16:42;100890.63;;;-0.37;79.21
61568;BME280;47462;59.172;17.196;2023-11-19T11:19:12;100894.03;;;-0.40;79.06
61568;BME280;47462;59.172;17.196;2023-11-19T11:21:40;100888.03;;;-0.39;79.28
61568;BME280;47462;59.172;17.196;2023-11-19T11:29:14;100881.41;;;-0.29;79.93
61568;BME280;47462;59.172;17.196;2023-11-19T11:32:04;100885.66;;;-0.29;79.94
61568;BME280;47462;59.172;17.196;2023-11-19T11:37:32;100876.22;;;-0.32;80.66
61568;BME280;47462;59.172;17.196;2023-11-19T11:39:58;100868.56;;;-0.29;80.61
61568;BME280;47462;59.172;17.196;2023-11-19T11:50:18;100873.81;;;-0.23;80.86
61568;BME280;47462;59.172;17.196;2023-11-19T11:57:57;100869.63;;;-0.17;81.02
61568;BME280;47462;59.172;17.196;2023-11-19T12:03:05;100867.16;;;-0.11;81.28
61568;BME280;47462;59.172;17.196;2023-11-19T12:05:32;100867.31;;;-0.04;81.30
61568;BME280;47462;59.172;17.196;2023-11-19T12:08:10;100863.91;;;-0.03;81.26
61568;BME280;47462;59.172;17.196;2023-11-19T12:10:48;100858.00;;;0.02;81.01
61568;BME280;47462;59.172;17.196;2023-11-19T12:13:15;100852.72;;;-0.06;80.49
61568;BME280;47462;59.172;17.196;2023-11-19T12:18:24;100858.66;;;-0.10;80.51
61568;BME280;47462;59.172;17.196;2023-11-19T12:20:51;100850.94;;;-0.10;80.83
61568;BME280;47462;59.172;17.196;2023-11-19T12:23:17;100858.63;;;-0.12;80.30
61568;BME280;47462;59.172;17.196;2023-11-19T12:25:43;100856.81;;;-0.16;80.76
61568;BME280;47462;59.172;17.196;2023-11-19T12:28:14;100855.06;;;-0.19;80.74
61568;BME280;47462;59.172;17.196;2023-11-19T12:30:42;100854.22;;;-0.19;81.01
61568;BME280;47462;59.172;17.196;2023-11-19T12:33:08;100851.63;;;-0.19;80.71
61568;BME280;47462;59.172;17.196;2023-11-19T12:38:05;100837.03;;;-0.23;81.00
61568;BME280;47462;59.172;17.196;2023-11-19T12:40:31;100842.19;;;-0.22;80.81
61568;BME280;47462;59.172;17.196;2023-11-19T12:42:57;100843.00;;;-0.24;80.53
61568;BME280;47462;59.172;17.196;2023-11-19T12:45:24;100845.56;;;-0.26;80.56
61568;BME280;47462;59.172;17.196;2023-11-19T12:48:04;100833.56;;;-0.27;80.79
61568;BME280;47462;59.172;17.196;2023-11-19T12:50:50;100837.81;;;-0.27;80.99
61568;BME280;47462;59.172;17.196;2023-11-19T12:53:15;100832.59;;;-0.33;81.12
61568;BME280;47462;59.172;17.196;2023-11-19T12:55:41;100835.25;;;-0.29;80.95
61568;BME280;47462;59.172;17.196;2023-11-19T12:58:07;100828.38;;;-0.30;81.08
61568;BME280;47462;59.172;17.196;2023-11-19T13:00:32;100834.31;;;-0.31;81.23
61568;BME280;47462;59.172;17.196;2023-11-19T13:02:58;100821.41;;;-0.37;81.26
61568;BME280;47462;59.172;17.196;2023-11-19T13:07:50;100815.38;;;-0.39;81.18
61568;BME280;47462;59.172;17.196;2023-11-19T13:10:16;100823.06;;;-0.39;81.44